Airfield :
LOGIN :

Register | Disclaimer

   EN    FR    IT 

 










Legend :    VFR   Marginal VFR   IFR   Intensive IFR   Very Intensive IFR
Visi :
Ceiling :
>= 8 km
>= 3000ft
5 to 8 km
1000 to 3000 ft
1500m to 5 km
500 to 1000 ft
800 to 1500m
200 to 500 ft
< 800m
< 200 ft
Symbols :   Thunderstorms  Fog  Heavy snow  Heavy precipitations  Wind > 20 kt
SIGMETs :     Misc.  Thunderstorms  Icing  Turbulence  Mountain Waves  Volcanic Ashes







- Airport Elevation : 1487 ft
- IATA code : MUC


EDDM - München Franz Josef Strauss

CURRENT METAR :
  • 271320Z 05008KT 350V100 CAVOK 24/11 Q1021 NOSIG

EXPIRED METARs :
  • 271250Z 09008KT 060V130 CAVOK 24/11 Q1021 NOSIG
  • 271220Z 09006KT 350V120 CAVOK 24/11 Q1021 NOSIG
  • 271150Z 07008KT 020V110 CAVOK 23/11 Q1021 NOSIG
  • 271120Z 05007KT 340V120 9999 FEW048 24/12 Q1022 NOSIG
  • 271050Z 08007KT 040V130 9999 FEW048 23/11 Q1022 NOSIG

TAF TAF EDDM
Valid from the 27 at 12:00 until the 28 at 18:00 UTC


271100Z 2712/2818 08008KT CAVOK
BECMG 2717/2719 VRB02KT
BECMG 2806/2808 09005KT
No reported NOTAMs for that airfield.



MET'MAP, your aeronautical weather chart ! - Copyright ORBIFLY December 2007 - Disclaimer

ORBIFLY MET'MAP TEAM :

Programming & Development : Alexandra Zaïnal
Concept & Development : Baudouin d'Aumeries
Co-Development & Prog : Marc-Olivier Méhu
Technical & hardware support : Manuel Goepfert

Contact : metmap@orbifly.com




SOURCES & CREDITS :

   NOAA